LIRZ/PEG METAR and TAF weather

Enter ICAO airport designator
Station Type Date Time Source
LIRZ METAR 2022/01/25 04:20 UTC NOAA

LIRZ 250420Z AUTO 33006KT 9999 NCD 02/M02 Q1032


Station Type Date Time Source
LIRZ Decoded METAR 2022/01/25 04:20 UTC NOAA

Perugia, Italy (LIRZ) 43-05N 012-30E 205M
Jan 24, 2022 - 11:20 PM EST / 2022.01.25 0420 UTC
Wind: from the NNW (330 degrees) at 7 MPH (6 KT):0
Visibility: greater than 7 mile(s):0
Temperature: 35 F (2 C)
Windchill: 28 F (-2 C):1
Dew Point: 28 F (-2 C)
Relative Humidity: 74%
Pressure (altimeter): 30.47 in. Hg (1032 hPa)
ob: LIRZ 250420Z AUTO 33006KT 9999 NCD 02/M02 Q1032
cycle: 4

Station Type Date Time Source
LIRZ TAF 2022/01/24 18:21 UTC NOAA

TAF LIRZ 241700Z 2418/2518 01012KT CAVOK
BECMG 2508/2510 VRB05KT

Example: see airport list